Aviation Digital Data Service (ADDS)

Output produced by METARs form (0603 UTC 18 January 2018)
found at http://www.aviationweather.gov/adds/metars/
 
HSOB 180500Z 02011KT CAVOK 15/02 Q1015
TAF HSOB 170500Z 1706/1812 35010G20KT CAVOK 
     TEMPO 1706/1709 6000
       
TAF HSSJ 171000Z 1712/1818 09004KT 6000 
     TEMPO 1712/1718 03004KT CAVOK
       
TAF HSKA 170500Z 1706/1812 VRB02KT CAVOK
       
HSSS 180530Z 35010KT CAVOK 17/M01 Q1014 NOSIG
TAF HSSS 180500Z 1806/1912 34008G18KT CAVOK
       
HSPN 180500Z 03012KT 9999 FEW030 21/14 Q1014
TAF HSPN 180500Z 1806/1912 34012G22KT CAVOK 
     BECMG 1810/1812 05014G24KT